Manning, North Dakota
Current Conditions -  °F | °C
As of 12:56 AM on Friday 19 Dec 2014 (Local Time) from KDIK Reporting Station
Clear Clear  
Wind Chill: 22°   Ceiling: Unl
Heat Index: 30°   Visibility: 10mi
Dew Point: 24°   Wind: 9mph
Humidity: 79%   Direction: 240°WSW
Pressure: 29.89"   Gusts: NA
Location:  47.23°N, 102.77°W
Report Text: KDIK 190756Z AUTO 24008KT 10SM CLR M01/M04 A2989 RMK AO2 SLP148 T10111044
Loading
Personal Weather Stations






























Interactive Weather Map New forecast layout! Learn more

10-Day Weather Forecast

Advertisements
Track Severe Weather on mobile